sensor_id;sensor_type;location;lat;lon;timestamp;pressure;altitude;pressure_sealevel;temperature;humidity
34081;BME280;20358;50.272;19.026;2023-06-01T00:01:13;98475.38;;;12.31;49.57
34081;BME280;20358;50.272;19.026;2023-06-01T00:04:22;98437.56;;;12.07;50.07
34081;BME280;20358;50.272;19.026;2023-06-01T00:07:30;98463.81;;;12.21;49.99
34081;BME280;20358;50.272;19.026;2023-06-01T00:10:37;98460.69;;;12.16;49.76
34081;BME280;20358;50.272;19.026;2023-06-01T00:13:44;98466.44;;;12.10;49.77
34081;BME280;20358;50.272;19.026;2023-06-01T00:16:55;98442.88;;;11.96;49.97
34081;BME280;20358;50.272;19.026;2023-06-01T00:20:05;98462.72;;;12.01;50.09
34081;BME280;20358;50.272;19.026;2023-06-01T00:23:16;98467.41;;;11.98;50.23
34081;BME280;20358;50.272;19.026;2023-06-01T00:26:27;98459.72;;;11.95;50.19
34081;BME280;20358;50.272;19.026;2023-06-01T00:29:37;98445.75;;;11.82;50.20
34081;BME280;20358;50.272;19.026;2023-06-01T00:32:47;98456.81;;;11.87;50.34
34081;BME280;20358;50.272;19.026;2023-06-01T00:35:55;98436.13;;;11.70;50.39
34081;BME280;20358;50.272;19.026;2023-06-01T00:39:04;98458.50;;;11.77;50.56
34081;BME280;20358;50.272;19.026;2023-06-01T00:42:12;98459.59;;;11.74;50.72
34081;BME280;20358;50.272;19.026;2023-06-01T00:45:19;98460.66;;;11.72;50.35
34081;BME280;20358;50.272;19.026;2023-06-01T00:48:31;98454.75;;;11.68;50.82
34081;BME280;20358;50.272;19.026;2023-06-01T00:51:38;98454.19;;;11.64;50.78
34081;BME280;20358;50.272;19.026;2023-06-01T00:54:46;98453.69;;;11.59;51.09
34081;BME280;20358;50.272;19.026;2023-06-01T00:57:55;98454.88;;;11.55;51.05
34081;BME280;20358;50.272;19.026;2023-06-01T01:01:02;98451.72;;;11.50;51.08
34081;BME280;20358;50.272;19.026;2023-06-01T01:04:14;98451.72;;;11.50;51.39
34081;BME280;20358;50.272;19.026;2023-06-01T01:07:35;98450.31;;;11.46;51.39
34081;BME280;20358;50.272;19.026;2023-06-01T01:10:59;98449.56;;;11.44;51.26
34081;BME280;20358;50.272;19.026;2023-06-01T01:14:21;98445.47;;;11.40;51.34
34081;BME280;20358;50.272;19.026;2023-06-01T01:17:37;98443.06;;;11.37;51.83
34081;BME280;20358;50.272;19.026;2023-06-01T01:20:58;98436.66;;;11.29;52.04
34081;BME280;20358;50.272;19.026;2023-06-01T01:24:40;98437.28;;;11.32;51.96
34081;BME280;20358;50.272;19.026;2023-06-01T01:28:08;98438.72;;;11.25;52.09
34081;BME280;20358;50.272;19.026;2023-06-01T01:31:26;98438.41;;;11.17;52.80
34081;BME280;20358;50.272;19.026;2023-06-01T01:34:37;98431.06;;;11.10;52.93
34081;BME280;20358;50.272;19.026;2023-06-01T01:37:50;98434.16;;;11.03;52.98
34081;BME280;20358;50.272;19.026;2023-06-01T01:41:23;98437.78;;;11.02;52.67
34081;BME280;20358;50.272;19.026;2023-06-01T01:44:32;98430.94;;;11.00;53.34
34081;BME280;20358;50.272;19.026;2023-06-01T01:47:51;98438.09;;;10.98;53.20
34081;BME280;20358;50.272;19.026;2023-06-01T01:54:50;98398.50;;;10.74;53.77
34081;BME280;20358;50.272;19.026;2023-06-01T01:58:00;98433.28;;;10.92;54.15
34081;BME280;20358;50.272;19.026;2023-06-01T02:01:10;98433.97;;;10.83;54.87
34081;BME280;20358;50.272;19.026;2023-06-01T02:04:21;98394.56;;;10.56;54.77
34081;BME280;20358;50.272;19.026;2023-06-01T02:07:30;98432.00;;;10.74;54.33
34081;BME280;20358;50.272;19.026;2023-06-01T02:10:40;98426.97;;;10.71;55.07
34081;BME280;20358;50.272;19.026;2023-06-01T02:13:49;98430.03;;;10.65;54.90
34081;BME280;20358;50.272;19.026;2023-06-01T02:16:56;98412.69;;;10.50;54.44
34081;BME280;20358;50.272;19.026;2023-06-01T02:20:10;98426.91;;;10.60;54.56
34081;BME280;20358;50.272;19.026;2023-06-01T02:23:17;98416.78;;;10.54;55.19
34081;BME280;20358;50.272;19.026;2023-06-01T02:26:32;98410.25;;;10.47;54.80
34081;BME280;20358;50.272;19.026;2023-06-01T02:29:40;98421.66;;;10.47;54.94
34081;BME280;20358;50.272;19.026;2023-06-01T02:32:48;98417.03;;;10.38;55.53
34081;BME280;20358;50.272;19.026;2023-06-01T02:35:57;98418.13;;;10.35;55.07
34081;BME280;20358;50.272;19.026;2023-06-01T02:39:06;98414.53;;;10.36;54.77
34081;BME280;20358;50.272;19.026;2023-06-01T02:42:13;98409.97;;;10.38;54.93
34081;BME280;20358;50.272;19.026;2023-06-01T02:45:21;98406.19;;;10.42;54.93
34081;BME280;20358;50.272;19.026;2023-06-01T02:48:29;98349.56;;;10.10;55.25
34081;BME280;20358;50.272;19.026;2023-06-01T02:51:40;98409.03;;;10.39;55.48
34081;BME280;20358;50.272;19.026;2023-06-01T02:54:59;98411.75;;;10.38;55.48
34081;BME280;20358;50.272;19.026;2023-06-01T02:58:23;98403.97;;;10.36;55.55
34081;BME280;20358;50.272;19.026;2023-06-01T03:01:39;98404.81;;;10.37;55.85
34081;BME280;20358;50.272;19.026;2023-06-01T03:04:48;98276.41;;;9.65;55.92
34081;BME280;20358;50.272;19.026;2023-06-01T03:07:58;98399.91;;;10.43;56.16
34081;BME280;20358;50.272;19.026;2023-06-01T03:11:10;98403.81;;;10.51;55.41
34081;BME280;20358;50.272;19.026;2023-06-01T03:14:25;98393.97;;;10.53;55.37
34081;BME280;20358;50.272;19.026;2023-06-01T03:17:34;98404.81;;;10.61;55.55
34081;BME280;20358;50.272;19.026;2023-06-01T03:20:41;98398.34;;;10.65;55.71
34081;BME280;20358;50.272;19.026;2023-06-01T03:23:55;98392.84;;;10.68;55.83
34081;BME280;20358;50.272;19.026;2023-06-01T03:27:01;98403.19;;;10.71;55.89
34081;BME280;20358;50.272;19.026;2023-06-01T03:30:13;98395.03;;;10.74;55.18
34081;BME280;20358;50.272;19.026;2023-06-01T03:33:22;98378.69;;;10.69;55.36
34081;BME280;20358;50.272;19.026;2023-06-01T03:36:30;98395.91;;;10.85;55.88
34081;BME280;20358;50.272;19.026;2023-06-01T03:39:42;98332.28;;;10.54;55.21
34081;BME280;20358;50.272;19.026;2023-06-01T03:42:54;98388.88;;;10.97;56.16
34081;BME280;20358;50.272;19.026;2023-06-01T03:46:02;98388.66;;;11.00;55.65
34081;BME280;20358;50.272;19.026;2023-06-01T03:49:10;98366.38;;;10.91;55.75
34081;BME280;20358;50.272;19.026;2023-06-01T03:52:17;98396.56;;;11.11;55.63
34081;BME280;20358;50.272;19.026;2023-06-01T03:55:28;98359.06;;;10.95;55.78
34081;BME280;20358;50.272;19.026;2023-06-01T03:58:40;98388.81;;;11.21;55.83
34081;BME280;20358;50.272;19.026;2023-06-01T04:01:50;98391.97;;;11.26;55.13
34081;BME280;20358;50.272;19.026;2023-06-01T04:04:57;98386.09;;;11.33;55.23
34081;BME280;20358;50.272;19.026;2023-06-01T04:08:05;98394.50;;;11.38;55.06
34081;BME280;20358;50.272;19.026;2023-06-01T04:11:16;98392.34;;;11.43;55.43
34081;BME280;20358;50.272;19.026;2023-06-01T04:14:25;98391.63;;;11.52;54.93
34081;BME280;20358;50.272;19.026;2023-06-01T04:17:32;98385.63;;;11.61;55.15
34081;BME280;20358;50.272;19.026;2023-06-01T04:20:43;98388.53;;;11.70;55.02
34081;BME280;20358;50.272;19.026;2023-06-01T04:23:51;98387.78;;;11.79;55.18
34081;BME280;20358;50.272;19.026;2023-06-01T04:27:02;98389.47;;;11.91;54.84
34081;BME280;20358;50.272;19.026;2023-06-01T04:30:11;98352.19;;;11.83;54.12
34081;BME280;20358;50.272;19.026;2023-06-01T04:33:20;98387.03;;;12.10;54.56
34081;BME280;20358;50.272;19.026;2023-06-01T04:36:29;98380.81;;;12.22;54.17
34081;BME280;20358;50.272;19.026;2023-06-01T04:39:41;98358.88;;;12.20;53.69
34081;BME280;20358;50.272;19.026;2023-06-01T04:42:55;98366.41;;;12.36;53.56
34081;BME280;20358;50.272;19.026;2023-06-01T04:46:09;98368.66;;;12.51;52.80
34081;BME280;20358;50.272;19.026;2023-06-01T04:49:18;98379.94;;;12.64;52.46
34081;BME280;20358;50.272;19.026;2023-06-01T04:52:26;98378.19;;;12.74;52.80
34081;BME280;20358;50.272;19.026;2023-06-01T04:55:33;98369.25;;;12.86;52.31
34081;BME280;20358;50.272;19.026;2023-06-01T04:58:47;98363.84;;;12.98;52.19
34081;BME280;20358;50.272;19.026;2023-06-01T05:01:55;98363.72;;;13.10;52.22
34081;BME280;20358;50.272;19.026;2023-06-01T05:05:04;98356.53;;;13.22;51.25
34081;BME280;20358;50.272;19.026;2023-06-01T05:08:13;98362.00;;;13.30;50.43
34081;BME280;20358;50.272;19.026;2023-06-01T05:11:22;98353.53;;;13.36;50.37
34081;BME280;20358;50.272;19.026;2023-06-01T05:14:33;98360.03;;;13.53;50.26
34081;BME280;20358;50.272;19.026;2023-06-01T05:17:44;98355.59;;;13.63;49.99
34081;BME280;20358;50.272;19.026;2023-06-01T05:20:55;98349.78;;;13.78;50.05
34081;BME280;20358;50.272;19.026;2023-06-01T05:24:04;98344.84;;;13.94;49.81
34081;BME280;20358;50.272;19.026;2023-06-01T05:27:12;98352.31;;;14.10;49.61
34081;BME280;20358;50.272;19.026;2023-06-01T05:30:27;98339.34;;;14.26;48.81
34081;BME280;20358;50.272;19.026;2023-06-01T05:33:39;98352.63;;;14.36;49.05
34081;BME280;20358;50.272;19.026;2023-06-01T05:36:48;98348.03;;;14.47;48.44
34081;BME280;20358;50.272;19.026;2023-06-01T05:39:59;98345.94;;;14.60;47.95
34081;BME280;20358;50.272;19.026;2023-06-01T05:43:09;98338.78;;;14.61;47.44
34081;BME280;20358;50.272;19.026;2023-06-01T05:46:20;98342.31;;;14.71;47.45
34081;BME280;20358;50.272;19.026;2023-06-01T05:49:29;98336.84;;;14.82;48.16
34081;BME280;20358;50.272;19.026;2023-06-01T05:52:38;98332.66;;;14.80;47.84
34081;BME280;20358;50.272;19.026;2023-06-01T05:55:48;98345.78;;;15.00;48.37
34081;BME280;20358;50.272;19.026;2023-06-01T05:58:59;98338.47;;;15.21;47.44
34081;BME280;20358;50.272;19.026;2023-06-01T06:02:11;98339.13;;;15.43;46.57
34081;BME280;20358;50.272;19.026;2023-06-01T06:05:19;98342.31;;;15.56;45.70
34081;BME280;20358;50.272;19.026;2023-06-01T06:08:28;98358.25;;;15.65;45.90
34081;BME280;20358;50.272;19.026;2023-06-01T06:11:36;98343.22;;;15.74;45.70
34081;BME280;20358;50.272;19.026;2023-06-01T06:14:44;98348.38;;;15.85;45.55
34081;BME280;20358;50.272;19.026;2023-06-01T06:17:56;98329.56;;;15.86;45.13
34081;BME280;20358;50.272;19.026;2023-06-01T06:21:07;98292.94;;;15.71;44.77
34081;BME280;20358;50.272;19.026;2023-06-01T06:24:15;98243.94;;;15.64;44.71
34081;BME280;20358;50.272;19.026;2023-06-01T06:27:23;98341.34;;;16.38;44.08
34081;BME280;20358;50.272;19.026;2023-06-01T06:30:31;98338.47;;;16.49;43.34
34081;BME280;20358;50.272;19.026;2023-06-01T06:33:41;98340.88;;;16.61;43.34
34081;BME280;20358;50.272;19.026;2023-06-01T06:36:50;98332.66;;;16.72;42.95
34081;BME280;20358;50.272;19.026;2023-06-01T06:39:58;98333.88;;;16.77;42.57
34081;BME280;20358;50.272;19.026;2023-06-01T06:43:07;98331.28;;;16.85;42.73
34081;BME280;20358;50.272;19.026;2023-06-01T06:46:17;98331.53;;;17.00;42.66
34081;BME280;20358;50.272;19.026;2023-06-01T06:49:27;98327.81;;;17.10;41.97
34081;BME280;20358;50.272;19.026;2023-06-01T06:52:35;98324.06;;;17.21;42.11
34081;BME280;20358;50.272;19.026;2023-06-01T06:55:45;98325.94;;;17.29;41.75
34081;BME280;20358;50.272;19.026;2023-06-01T06:58:53;98328.34;;;17.40;41.35
34081;BME280;20358;50.272;19.026;2023-06-01T07:02:10;98290.25;;;17.30;40.93
34081;BME280;20358;50.272;19.026;2023-06-01T07:05:29;98319.59;;;17.55;40.60
34081;BME280;20358;50.272;19.026;2023-06-01T07:08:38;98329.97;;;17.58;39.41
34081;BME280;20358;50.272;19.026;2023-06-01T07:11:47;98329.28;;;17.56;39.06
34081;BME280;20358;50.272;19.026;2023-06-01T07:14:55;98318.91;;;17.53;38.24
34081;BME280;20358;50.272;19.026;2023-06-01T07:18:04;98316.06;;;17.55;38.41
34081;BME280;20358;50.272;19.026;2023-06-01T07:21:16;98296.19;;;17.49;38.18
34081;BME280;20358;50.272;19.026;2023-06-01T07:24:24;98318.63;;;17.64;37.62
34081;BME280;20358;50.272;19.026;2023-06-01T07:27:34;98319.41;;;17.83;37.83
34081;BME280;20358;50.272;19.026;2023-06-01T07:30:49;98236.75;;;17.39;36.86
34081;BME280;20358;50.272;19.026;2023-06-01T07:33:57;98320.72;;;17.79;36.44
34081;BME280;20358;50.272;19.026;2023-06-01T07:37:33;98314.06;;;17.83;36.71
34081;BME280;20358;50.272;19.026;2023-06-01T07:40:41;98313.41;;;17.89;36.75
34081;BME280;20358;50.272;19.026;2023-06-01T07:43:52;98312.47;;;17.98;36.22
34081;BME280;20358;50.272;19.026;2023-06-01T07:47:05;98308.47;;;18.02;36.96
34081;BME280;20358;50.272;19.026;2023-06-01T07:50:20;98238.59;;;17.81;37.60
34081;BME280;20358;50.272;19.026;2023-06-01T07:53:35;98276.13;;;18.29;38.03
34081;BME280;20358;50.272;19.026;2023-06-01T07:56:42;98307.94;;;18.72;37.88
34081;BME280;20358;50.272;19.026;2023-06-01T07:59:52;98305.59;;;18.85;35.06
34081;BME280;20358;50.272;19.026;2023-06-01T08:03:01;98309.28;;;18.92;36.25
34081;BME280;20358;50.272;19.026;2023-06-01T08:06:15;98310.59;;;18.96;33.94
34081;BME280;20358;50.272;19.026;2023-06-01T08:09:31;98295.56;;;19.04;35.27
34081;BME280;20358;50.272;19.026;2023-06-01T08:12:39;98309.59;;;18.89;33.50
34081;BME280;20358;50.272;19.026;2023-06-01T08:15:48;98300.91;;;18.79;33.75
34081;BME280;20358;50.272;19.026;2023-06-01T08:18:58;98295.56;;;18.87;35.90
34081;BME280;20358;50.272;19.026;2023-06-01T08:22:05;98269.13;;;18.84;35.33
34081;BME280;20358;50.272;19.026;2023-06-01T08:25:19;98295.56;;;19.20;36.20
34081;BME280;20358;50.272;19.026;2023-06-01T08:28:33;98288.50;;;19.27;35.53
34081;BME280;20358;50.272;19.026;2023-06-01T08:31:46;98263.44;;;19.20;34.93
34081;BME280;20358;50.272;19.026;2023-06-01T08:34:54;98284.50;;;19.23;34.65
34081;BME280;20358;50.272;19.026;2023-06-01T08:38:02;98269.13;;;19.17;34.11
34081;BME280;20358;50.272;19.026;2023-06-01T08:41:18;98282.13;;;19.28;33.58
34081;BME280;20358;50.272;19.026;2023-06-01T08:44:35;98264.63;;;18.93;34.41
34081;BME280;20358;50.272;19.026;2023-06-01T08:47:46;98275.97;;;19.11;35.30
34081;BME280;20358;50.272;19.026;2023-06-01T08:51:00;98271.78;;;19.09;34.23
34081;BME280;20358;50.272;19.026;2023-06-01T08:54:11;98272.13;;;19.06;34.22
34081;BME280;20358;50.272;19.026;2023-06-01T08:57:24;98270.44;;;19.05;34.51
34081;BME280;20358;50.272;19.026;2023-06-01T09:00:32;98262.25;;;19.14;34.64
34081;BME280;20358;50.272;19.026;2023-06-01T09:03:41;98258.72;;;19.30;35.46
34081;BME280;20358;50.272;19.026;2023-06-01T09:06:48;98262.88;;;19.40;34.67
34081;BME280;20358;50.272;19.026;2023-06-01T09:09:59;98262.41;;;19.29;33.69
34081;BME280;20358;50.272;19.026;2023-06-01T09:13:10;98256.72;;;19.24;32.84
34081;BME280;20358;50.272;19.026;2023-06-01T09:16:21;98248.81;;;19.30;34.49
34081;BME280;20358;50.272;19.026;2023-06-01T09:19:53;98216.59;;;18.91;33.63
34081;BME280;20358;50.272;19.026;2023-06-01T09:23:04;98246.88;;;19.16;33.69
34081;BME280;20358;50.272;19.026;2023-06-01T09:26:15;98244.19;;;19.24;32.71
34081;BME280;20358;50.272;19.026;2023-06-01T09:29:26;98249.72;;;18.98;33.53
34081;BME280;20358;50.272;19.026;2023-06-01T09:32:37;98239.03;;;18.98;33.72
34081;BME280;20358;50.272;19.026;2023-06-01T09:35:49;98243.69;;;18.96;33.98
34081;BME280;20358;50.272;19.026;2023-06-01T09:39:03;98238.50;;;19.03;34.04
34081;BME280;20358;50.272;19.026;2023-06-01T09:42:14;98240.16;;;19.12;33.92
34081;BME280;20358;50.272;19.026;2023-06-01T09:45:32;98233.03;;;18.88;34.07
34081;BME280;20358;50.272;19.026;2023-06-01T09:48:48;98234.34;;;19.01;33.73
34081;BME280;20358;50.272;19.026;2023-06-01T09:52:10;98231.66;;;19.09;33.99
34081;BME280;20358;50.272;19.026;2023-06-01T09:55:27;98224.22;;;19.35;35.75
34081;BME280;20358;50.272;19.026;2023-06-01T09:58:35;98231.50;;;19.57;31.41
34081;BME280;20358;50.272;19.026;2023-06-01T10:01:51;98228.13;;;19.63;31.98
34081;BME280;20358;50.272;19.026;2023-06-01T10:05:05;98212.72;;;19.65;32.89
34081;BME280;20358;50.272;19.026;2023-06-01T10:08:17;98182.28;;;19.58;32.12
34081;BME280;20358;50.272;19.026;2023-06-01T10:11:27;98217.06;;;19.66;32.28
34081;BME280;20358;50.272;19.026;2023-06-01T10:14:37;98212.91;;;19.64;32.43
34081;BME280;20358;50.272;19.026;2023-06-01T10:17:49;98208.31;;;19.72;33.42
34081;BME280;20358;50.272;19.026;2023-06-01T10:20:59;98209.34;;;19.71;32.11
34081;BME280;20358;50.272;19.026;2023-06-01T10:24:10;98212.66;;;19.73;32.85
34081;BME280;20358;50.272;19.026;2023-06-01T10:27:24;98200.28;;;19.72;32.84
34081;BME280;20358;50.272;19.026;2023-06-01T10:30:37;98199.91;;;19.75;32.94
34081;BME280;20358;50.272;19.026;2023-06-01T10:33:55;98188.31;;;19.91;33.04
34081;BME280;20358;50.272;19.026;2023-06-01T10:37:21;98177.53;;;19.99;31.91
34081;BME280;20358;50.272;19.026;2023-06-01T10:40:32;98184.28;;;20.17;33.01
34081;BME280;20358;50.272;19.026;2023-06-01T10:43:41;98181.53;;;20.26;31.19
34081;BME280;20358;50.272;19.026;2023-06-01T10:46:51;98178.78;;;20.34;30.01
34081;BME280;20358;50.272;19.026;2023-06-01T10:50:16;98175.84;;;20.43;29.54
34081;BME280;20358;50.272;19.026;2023-06-01T10:53:31;98178.00;;;20.48;29.61
34081;BME280;20358;50.272;19.026;2023-06-01T10:56:41;98169.06;;;20.55;30.21
34081;BME280;20358;50.272;19.026;2023-06-01T11:00:12;98180.69;;;20.48;27.40
34081;BME280;20358;50.272;19.026;2023-06-01T11:03:43;98160.91;;;20.26;29.17
34081;BME280;20358;50.272;19.026;2023-06-01T11:07:34;98160.91;;;20.26;29.09
34081;BME280;20358;50.272;19.026;2023-06-01T11:10:57;98162.84;;;20.32;29.63
34081;BME280;20358;50.272;19.026;2023-06-01T11:14:10;98143.53;;;20.37;30.85
34081;BME280;20358;50.272;19.026;2023-06-01T11:17:28;98145.63;;;20.27;30.52
34081;BME280;20358;50.272;19.026;2023-06-01T11:20:40;98132.81;;;20.37;31.29
34081;BME280;20358;50.272;19.026;2023-06-01T11:24:10;98136.22;;;20.53;29.96
34081;BME280;20358;50.272;19.026;2023-06-01T11:27:20;98142.63;;;20.67;31.31
34081;BME280;20358;50.272;19.026;2023-06-01T11:30:29;98138.91;;;20.68;30.11
34081;BME280;20358;50.272;19.026;2023-06-01T11:33:41;98136.91;;;20.70;32.11
34081;BME280;20358;50.272;19.026;2023-06-01T11:36:56;98140.13;;;20.80;31.72
34081;BME280;20358;50.272;19.026;2023-06-01T11:40:11;98112.66;;;20.78;32.54
34081;BME280;20358;50.272;19.026;2023-06-01T11:43:26;98116.41;;;20.84;31.99
34081;BME280;20358;50.272;19.026;2023-06-01T11:46:53;98114.84;;;20.89;31.37
34081;BME280;20358;50.272;19.026;2023-06-01T11:50:07;98122.81;;;20.97;31.32
34081;BME280;20358;50.272;19.026;2023-06-01T11:53:36;98114.66;;;21.05;31.93
34081;BME280;20358;50.272;19.026;2023-06-01T11:56:48;98109.09;;;21.07;31.57
34081;BME280;20358;50.272;19.026;2023-06-01T12:00:02;98119.56;;;21.02;30.35
34081;BME280;20358;50.272;19.026;2023-06-01T12:03:22;98115.06;;;20.88;30.75
34081;BME280;20358;50.272;19.026;2023-06-01T12:06:35;98102.06;;;20.91;31.10
34081;BME280;20358;50.272;19.026;2023-06-01T12:09:42;98107.47;;;20.76;31.56
34081;BME280;20358;50.272;19.026;2023-06-01T12:13:03;98100.03;;;20.78;31.45
34081;BME280;20358;50.272;19.026;2023-06-01T12:16:10;98101.34;;;20.97;31.82
34081;BME280;20358;50.272;19.026;2023-06-01T12:19:26;98097.47;;;21.14;30.92
34081;BME280;20358;50.272;19.026;2023-06-01T12:22:35;98087.91;;;21.26;31.53
34081;BME280;20358;50.272;19.026;2023-06-01T12:25:49;98095.09;;;21.40;32.29
34081;BME280;20358;50.272;19.026;2023-06-01T12:29:01;98085.81;;;21.43;31.05
34081;BME280;20358;50.272;19.026;2023-06-01T12:32:13;98071.16;;;21.46;31.93
34081;BME280;20358;50.272;19.026;2023-06-01T12:35:28;98066.50;;;21.54;31.13
34081;BME280;20358;50.272;19.026;2023-06-01T12:38:48;98069.41;;;21.53;30.94
34081;BME280;20358;50.272;19.026;2023-06-01T12:41:57;98073.09;;;21.52;31.87
34081;BME280;20358;50.272;19.026;2023-06-01T12:45:09;98075.66;;;21.60;32.26
34081;BME280;20358;50.272;19.026;2023-06-01T12:48:30;98066.19;;;21.64;30.99
34081;BME280;20358;50.272;19.026;2023-06-01T12:51:40;98061.22;;;21.61;30.92
34081;BME280;20358;50.272;19.026;2023-06-01T12:54:46;98065.44;;;21.70;30.67
34081;BME280;20358;50.272;19.026;2023-06-01T12:57:55;98067.19;;;21.77;30.86
34081;BME280;20358;50.272;19.026;2023-06-01T13:01:06;98066.22;;;21.85;29.94
34081;BME280;20358;50.272;19.026;2023-06-01T13:04:14;98077.19;;;21.83;29.71
34081;BME280;20358;50.272;19.026;2023-06-01T13:07:23;98060.44;;;21.81;30.22
34081;BME280;20358;50.272;19.026;2023-06-01T13:10:31;98057.66;;;21.75;31.17
34081;BME280;20358;50.272;19.026;2023-06-01T13:13:38;98052.84;;;21.91;30.89
34081;BME280;20358;50.272;19.026;2023-06-01T13:16:54;98045.38;;;21.87;31.22
34081;BME280;20358;50.272;19.026;2023-06-01T13:20:02;98046.31;;;22.00;31.22
34081;BME280;20358;50.272;19.026;2023-06-01T13:23:11;98033.69;;;22.01;32.19
34081;BME280;20358;50.272;19.026;2023-06-01T13:26:20;98047.63;;;22.11;30.24
34081;BME280;20358;50.272;19.026;2023-06-01T13:29:29;98048.13;;;22.21;31.23
34081;BME280;20358;50.272;19.026;2023-06-01T13:32:39;98048.84;;;22.09;30.69
34081;BME280;20358;50.272;19.026;2023-06-01T13:35:47;98044.69;;;22.06;30.23
34081;BME280;20358;50.272;19.026;2023-06-01T13:38:57;98039.44;;;22.19;31.83
34081;BME280;20358;50.272;19.026;2023-06-01T13:42:06;98031.59;;;22.24;31.05
34081;BME280;20358;50.272;19.026;2023-06-01T13:45:15;98026.72;;;22.34;31.01
34081;BME280;20358;50.272;19.026;2023-06-01T13:48:26;98051.03;;;22.20;30.46
34081;BME280;20358;50.272;19.026;2023-06-01T13:51:33;98031.50;;;22.11;30.03
34081;BME280;20358;50.272;19.026;2023-06-01T13:54:44;98039.81;;;22.16;30.27
34081;BME280;20358;50.272;19.026;2023-06-01T13:57:53;98015.19;;;22.13;29.76
34081;BME280;20358;50.272;19.026;2023-06-01T14:01:05;98015.69;;;22.29;31.01
34081;BME280;20358;50.272;19.026;2023-06-01T14:04:23;98009.81;;;22.47;29.36
34081;BME280;20358;50.272;19.026;2023-06-01T14:07:32;98003.47;;;22.27;29.02
34081;BME280;20358;50.272;19.026;2023-06-01T14:10:40;97995.16;;;22.49;29.31
34081;BME280;20358;50.272;19.026;2023-06-01T14:13:49;98000.44;;;22.71;28.52
34081;BME280;20358;50.272;19.026;2023-06-01T14:16:58;97985.56;;;22.81;28.71
34081;BME280;20358;50.272;19.026;2023-06-01T14:20:10;97984.47;;;23.10;29.71
34081;BME280;20358;50.272;19.026;2023-06-01T14:23:22;97969.56;;;23.20;27.82
34081;BME280;20358;50.272;19.026;2023-06-01T14:26:30;97984.09;;;23.26;28.56
34081;BME280;20358;50.272;19.026;2023-06-01T14:29:37;97989.13;;;23.49;28.13
34081;BME280;20358;50.272;19.026;2023-06-01T14:32:48;97942.66;;;23.40;27.52
34081;BME280;20358;50.272;19.026;2023-06-01T14:35:59;97985.63;;;23.61;27.19
34081;BME280;20358;50.272;19.026;2023-06-01T14:39:07;97955.56;;;23.51;27.19
34081;BME280;20358;50.272;19.026;2023-06-01T14:42:16;97859.13;;;23.01;27.53
34081;BME280;20358;50.272;19.026;2023-06-01T14:45:29;97980.25;;;23.74;26.79
34081;BME280;20358;50.272;19.026;2023-06-01T14:48:36;97982.13;;;23.80;27.05
34081;BME280;20358;50.272;19.026;2023-06-01T14:51:47;97971.53;;;23.72;28.14
34081;BME280;20358;50.272;19.026;2023-06-01T14:54:54;97922.75;;;23.28;28.22
34081;BME280;20358;50.272;19.026;2023-06-01T14:58:02;97973.00;;;23.68;28.59
34081;BME280;20358;50.272;19.026;2023-06-01T15:01:09;97962.41;;;23.87;28.84
34081;BME280;20358;50.272;19.026;2023-06-01T15:04:23;97900.78;;;23.97;28.08
34081;BME280;20358;50.272;19.026;2023-06-01T15:07:36;97952.22;;;25.30;27.83
34081;BME280;20358;50.272;19.026;2023-06-01T15:10:49;97896.44;;;25.35;25.68
34081;BME280;20358;50.272;19.026;2023-06-01T15:13:57;97970.59;;;26.27;24.89
34081;BME280;20358;50.272;19.026;2023-06-01T15:17:18;97959.78;;;26.63;25.16
34081;BME280;20358;50.272;19.026;2023-06-01T15:20:32;97957.63;;;26.35;24.94
34081;BME280;20358;50.272;19.026;2023-06-01T15:23:45;97847.06;;;25.71;25.43
34081;BME280;20358;50.272;19.026;2023-06-01T15:26:52;97949.25;;;26.37;24.83
34081;BME280;20358;50.272;19.026;2023-06-01T15:30:00;97946.69;;;26.60;25.23
34081;BME280;20358;50.272;19.026;2023-06-01T15:33:07;97944.91;;;26.54;24.73
34081;BME280;20358;50.272;19.026;2023-06-01T15:36:16;97945.94;;;26.71;25.01
34081;BME280;20358;50.272;19.026;2023-06-01T15:39:33;97940.09;;;26.74;24.90
34081;BME280;20358;50.272;19.026;2023-06-01T15:42:46;97940.97;;;26.68;24.64
34081;BME280;20358;50.272;19.026;2023-06-01T15:45:54;97941.00;;;27.16;24.52
34081;BME280;20358;50.272;19.026;2023-06-01T15:49:06;97927.91;;;27.54;24.20
34081;BME280;20358;50.272;19.026;2023-06-01T15:52:13;97924.44;;;28.00;23.58
34081;BME280;20358;50.272;19.026;2023-06-01T15:55:24;97862.13;;;27.59;23.42
34081;BME280;20358;50.272;19.026;2023-06-01T15:58:32;97737.34;;;27.12;23.29
34081;BME280;20358;50.272;19.026;2023-06-01T16:01:41;97914.72;;;28.50;23.41
34081;BME280;20358;50.272;19.026;2023-06-01T16:04:50;97838.97;;;28.37;23.41
34081;BME280;20358;50.272;19.026;2023-06-01T16:08:03;97917.41;;;29.02;23.21
34081;BME280;20358;50.272;19.026;2023-06-01T16:11:14;97881.84;;;29.20;23.24
34081;BME280;20358;50.272;19.026;2023-06-01T16:14:23;97914.06;;;29.56;22.73
34081;BME280;20358;50.272;19.026;2023-06-01T16:17:30;97919.84;;;29.60;22.60
34081;BME280;20358;50.272;19.026;2023-06-01T16:20:40;97839.00;;;29.10;22.56
34081;BME280;20358;50.272;19.026;2023-06-01T16:24:11;97912.66;;;29.54;22.70
34081;BME280;20358;50.272;19.026;2023-06-01T16:27:35;97901.69;;;29.65;23.00
34081;BME280;20358;50.272;19.026;2023-06-01T16:30:42;97878.78;;;29.28;23.02
34081;BME280;20358;50.272;19.026;2023-06-01T16:34:00;97880.19;;;29.19;23.61
34081;BME280;20358;50.272;19.026;2023-06-01T16:37:17;97880.09;;;28.97;23.56
34081;BME280;20358;50.272;19.026;2023-06-01T16:40:34;97865.63;;;28.80;23.75
34081;BME280;20358;50.272;19.026;2023-06-01T16:43:44;97883.34;;;28.83;24.33
34081;BME280;20358;50.272;19.026;2023-06-01T16:46:52;97854.69;;;28.64;24.33